sensor_id;sensor_type;location;lat;lon;timestamp;pressure;altitude;pressure_sealevel;temperature;humidity
6395;BME280;3230;42.588;23.358;2023-02-13T00:01:05;92536.03;;;-4.88;100.00
6395;BME280;3230;42.588;23.358;2023-02-13T00:03:30;92534.72;;;-4.92;100.00
6395;BME280;3230;42.588;23.358;2023-02-13T00:05:55;92534.50;;;-4.99;100.00
6395;BME280;3230;42.588;23.358;2023-02-13T00:08:21;92527.63;;;-4.98;100.00
6395;BME280;3230;42.588;23.358;2023-02-13T00:10:47;92528.06;;;-5.03;100.00
6395;BME280;3230;42.588;23.358;2023-02-13T00:13:12;92533.59;;;-5.07;100.00
6395;BME280;3230;42.588;23.358;2023-02-13T00:15:38;92527.84;;;-5.19;100.00
6395;BME280;3230;42.588;23.358;2023-02-13T00:18:03;92526.03;;;-5.27;100.00
6395;BME280;3230;42.588;23.358;2023-02-13T00:20:29;92523.88;;;-5.32;100.00
6395;BME280;3230;42.588;23.358;2023-02-13T00:22:54;92518.88;;;-5.23;100.00
6395;BME280;3230;42.588;23.358;2023-02-13T00:25:19;92529.88;;;-5.23;100.00
6395;BME280;3230;42.588;23.358;2023-02-13T00:27:45;92528.94;;;-5.22;100.00
6395;BME280;3230;42.588;23.358;2023-02-13T00:30:11;92534.31;;;-5.25;100.00
6395;BME280;3230;42.588;23.358;2023-02-13T00:32:36;92533.31;;;-5.32;100.00
6395;BME280;3230;42.588;23.358;2023-02-13T00:35:02;92535.56;;;-5.29;100.00
6395;BME280;3230;42.588;23.358;2023-02-13T00:37:27;92535.38;;;-5.18;100.00
6395;BME280;3230;42.588;23.358;2023-02-13T00:39:52;92538.22;;;-5.21;100.00
6395;BME280;3230;42.588;23.358;2023-02-13T00:42:18;92547.16;;;-5.07;100.00
6395;BME280;3230;42.588;23.358;2023-02-13T00:44:44;92540.88;;;-5.12;100.00
6395;BME280;3230;42.588;23.358;2023-02-13T00:47:09;92536.63;;;-5.22;100.00
6395;BME280;3230;42.588;23.358;2023-02-13T00:49:38;92544.00;;;-5.19;100.00
6395;BME280;3230;42.588;23.358;2023-02-13T00:52:04;92543.88;;;-5.17;100.00
6395;BME280;3230;42.588;23.358;2023-02-13T00:54:29;92552.44;;;-5.08;100.00
6395;BME280;3230;42.588;23.358;2023-02-13T00:56:55;92551.72;;;-5.01;100.00
6395;BME280;3230;42.588;23.358;2023-02-13T00:59:20;92545.47;;;-4.88;100.00
6395;BME280;3230;42.588;23.358;2023-02-13T01:01:45;92541.94;;;-4.87;100.00
6395;BME280;3230;42.588;23.358;2023-02-13T01:04:11;92551.38;;;-4.88;100.00
6395;BME280;3230;42.588;23.358;2023-02-13T01:06:36;92567.66;;;-4.89;100.00
6395;BME280;3230;42.588;23.358;2023-02-13T01:09:02;92553.44;;;-4.91;100.00
6395;BME280;3230;42.588;23.358;2023-02-13T01:11:28;92550.06;;;-4.92;100.00
6395;BME280;3230;42.588;23.358;2023-02-13T01:13:53;92548.97;;;-4.89;100.00
6395;BME280;3230;42.588;23.358;2023-02-13T01:16:19;92543.78;;;-4.98;100.00
6395;BME280;3230;42.588;23.358;2023-02-13T01:18:44;92535.47;;;-5.09;100.00
6395;BME280;3230;42.588;23.358;2023-02-13T01:21:19;92553.78;;;-5.14;100.00
6395;BME280;3230;42.588;23.358;2023-02-13T01:23:46;92542.78;;;-5.15;100.00
6395;BME280;3230;42.588;23.358;2023-02-13T01:26:19;92535.38;;;-5.18;100.00
6395;BME280;3230;42.588;23.358;2023-02-13T01:28:45;92543.19;;;-5.19;100.00
6395;BME280;3230;42.588;23.358;2023-02-13T01:31:11;92546.19;;;-4.96;100.00
6395;BME280;3230;42.588;23.358;2023-02-13T01:33:36;92551.97;;;-4.94;100.00
6395;BME280;3230;42.588;23.358;2023-02-13T01:36:10;92557.88;;;-4.93;100.00
6395;BME280;3230;42.588;23.358;2023-02-13T01:38:35;92548.59;;;-4.94;100.00
6395;BME280;3230;42.588;23.358;2023-02-13T01:41:01;92558.25;;;-4.88;100.00
6395;BME280;3230;42.588;23.358;2023-02-13T01:46:23;92553.63;;;-4.75;100.00
6395;BME280;3230;42.588;23.358;2023-02-13T01:48:53;92550.19;;;-4.66;100.00
6395;BME280;3230;42.588;23.358;2023-02-13T01:51:24;92552.97;;;-4.59;100.00
6395;BME280;3230;42.588;23.358;2023-02-13T01:53:59;92557.94;;;-4.57;100.00
6395;BME280;3230;42.588;23.358;2023-02-13T01:56:36;92555.13;;;-4.64;100.00
6395;BME280;3230;42.588;23.358;2023-02-13T01:59:07;92562.03;;;-4.64;100.00
6395;BME280;3230;42.588;23.358;2023-02-13T02:01:35;92567.22;;;-4.56;100.00
6395;BME280;3230;42.588;23.358;2023-02-13T02:04:11;92563.22;;;-4.41;100.00
6395;BME280;3230;42.588;23.358;2023-02-13T02:06:45;92558.31;;;-4.52;100.00
6395;BME280;3230;42.588;23.358;2023-02-13T02:09:16;92560.06;;;-4.53;100.00
6395;BME280;3230;42.588;23.358;2023-02-13T02:11:51;92569.94;;;-4.40;100.00
6395;BME280;3230;42.588;23.358;2023-02-13T02:14:19;92559.94;;;-4.33;100.00
6395;BME280;3230;42.588;23.358;2023-02-13T02:16:44;92552.63;;;-4.28;100.00
6395;BME280;3230;42.588;23.358;2023-02-13T02:27:51;92562.94;;;-4.20;100.00
6395;BME280;3230;42.588;23.358;2023-02-13T02:30:56;92561.09;;;-4.09;100.00
6395;BME280;3230;42.588;23.358;2023-02-13T02:33:28;92561.53;;;-4.32;100.00
6395;BME280;3230;42.588;23.358;2023-02-13T02:39:08;92569.41;;;-4.61;100.00
6395;BME280;3230;42.588;23.358;2023-02-13T02:41:58;92564.00;;;-4.58;100.00
6395;BME280;3230;42.588;23.358;2023-02-13T02:47:23;92566.91;;;-4.71;100.00
6395;BME280;3230;42.588;23.358;2023-02-13T02:50:22;92575.97;;;-4.77;100.00
6395;BME280;3230;42.588;23.358;2023-02-13T02:55:31;92579.94;;;-4.64;100.00
6395;BME280;3230;42.588;23.358;2023-02-13T02:58:23;92580.81;;;-4.56;100.00
6395;BME280;3230;42.588;23.358;2023-02-13T03:01:13;92582.44;;;-4.55;100.00
6395;BME280;3230;42.588;23.358;2023-02-13T03:03:57;92585.06;;;-4.46;100.00
6395;BME280;3230;42.588;23.358;2023-02-13T03:06:50;92591.38;;;-4.41;100.00
6395;BME280;3230;42.588;23.358;2023-02-13T03:09:24;92590.19;;;-4.46;100.00
6395;BME280;3230;42.588;23.358;2023-02-13T03:12:12;92589.63;;;-4.40;100.00
6395;BME280;3230;42.588;23.358;2023-02-13T03:14:59;92579.91;;;-4.37;100.00
6395;BME280;3230;42.588;23.358;2023-02-13T03:17:25;92580.75;;;-4.46;100.00
6395;BME280;3230;42.588;23.358;2023-02-13T03:20:22;92583.75;;;-4.32;100.00
6395;BME280;3230;42.588;23.358;2023-02-13T03:25:52;92584.94;;;-4.27;100.00
6395;BME280;3230;42.588;23.358;2023-02-13T03:29:03;92584.34;;;-4.39;100.00
6395;BME280;3230;42.588;23.358;2023-02-13T03:31:54;92587.47;;;-4.45;100.00
6395;BME280;3230;42.588;23.358;2023-02-13T03:34:29;92580.16;;;-4.58;100.00
6395;BME280;3230;42.588;23.358;2023-02-13T03:37:18;92573.63;;;-4.70;100.00
6395;BME280;3230;42.588;23.358;2023-02-13T03:40:11;92589.28;;;-4.73;100.00
6395;BME280;3230;42.588;23.358;2023-02-13T03:42:46;92595.91;;;-4.80;100.00
6395;BME280;3230;42.588;23.358;2023-02-13T03:45:19;92594.84;;;-4.88;100.00
6395;BME280;3230;42.588;23.358;2023-02-13T03:48:11;92602.84;;;-5.01;100.00
6395;BME280;3230;42.588;23.358;2023-02-13T03:50:58;92593.84;;;-5.05;100.00
6395;BME280;3230;42.588;23.358;2023-02-13T03:53:26;92582.19;;;-5.17;100.00
6395;BME280;3230;42.588;23.358;2023-02-13T03:55:53;92583.69;;;-5.24;100.00
6395;BME280;3230;42.588;23.358;2023-02-13T03:58:42;92578.97;;;-5.19;100.00
6395;BME280;3230;42.588;23.358;2023-02-13T04:01:30;92584.09;;;-5.19;100.00
6395;BME280;3230;42.588;23.358;2023-02-13T04:06:43;92585.97;;;-5.21;100.00
6395;BME280;3230;42.588;23.358;2023-02-13T04:09:11;92590.06;;;-5.38;100.00
6395;BME280;3230;42.588;23.358;2023-02-13T04:11:57;92580.25;;;-5.33;100.00
6395;BME280;3230;42.588;23.358;2023-02-13T04:14:35;92589.78;;;-5.35;100.00
6395;BME280;3230;42.588;23.358;2023-02-13T04:17:17;92596.13;;;-5.39;100.00
6395;BME280;3230;42.588;23.358;2023-02-13T04:19:44;92583.09;;;-5.46;100.00
6395;BME280;3230;42.588;23.358;2023-02-13T04:22:10;92593.06;;;-5.53;100.00
6395;BME280;3230;42.588;23.358;2023-02-13T04:24:36;92593.34;;;-5.56;100.00
6395;BME280;3230;42.588;23.358;2023-02-13T04:27:02;92595.63;;;-5.72;100.00
6395;BME280;3230;42.588;23.358;2023-02-13T04:29:27;92593.91;;;-5.72;100.00
6395;BME280;3230;42.588;23.358;2023-02-13T04:31:53;92603.44;;;-5.74;100.00
6395;BME280;3230;42.588;23.358;2023-02-13T04:34:18;92593.22;;;-5.64;100.00
6395;BME280;3230;42.588;23.358;2023-02-13T04:36:43;92591.22;;;-5.70;100.00
6395;BME280;3230;42.588;23.358;2023-02-13T04:39:10;92584.81;;;-5.94;100.00
6395;BME280;3230;42.588;23.358;2023-02-13T04:41:35;92586.53;;;-5.95;100.00
6395;BME280;3230;42.588;23.358;2023-02-13T04:44:01;92588.28;;;-5.95;100.00
6395;BME280;3230;42.588;23.358;2023-02-13T04:46:26;92588.00;;;-5.92;100.00
6395;BME280;3230;42.588;23.358;2023-02-13T04:48:51;92584.56;;;-6.01;100.00
6395;BME280;3230;42.588;23.358;2023-02-13T04:51:17;92586.00;;;-5.98;100.00
6395;BME280;3230;42.588;23.358;2023-02-13T04:53:42;92593.03;;;-6.00;100.00
6395;BME280;3230;42.588;23.358;2023-02-13T04:56:07;92592.22;;;-6.01;100.00
6395;BME280;3230;42.588;23.358;2023-02-13T04:58:33;92585.38;;;-6.00;100.00
6395;BME280;3230;42.588;23.358;2023-02-13T05:00:58;92591.41;;;-6.01;100.00
6395;BME280;3230;42.588;23.358;2023-02-13T05:03:23;92599.56;;;-5.88;100.00
6395;BME280;3230;42.588;23.358;2023-02-13T05:05:49;92603.31;;;-5.92;100.00
6395;BME280;3230;42.588;23.358;2023-02-13T05:08:15;92598.66;;;-5.97;100.00
6395;BME280;3230;42.588;23.358;2023-02-13T05:10:41;92604.41;;;-5.85;100.00
6395;BME280;3230;42.588;23.358;2023-02-13T05:13:06;92604.00;;;-5.80;100.00
6395;BME280;3230;42.588;23.358;2023-02-13T05:15:32;92612.88;;;-5.74;100.00
6395;BME280;3230;42.588;23.358;2023-02-13T05:17:57;92615.66;;;-5.68;100.00
6395;BME280;3230;42.588;23.358;2023-02-13T05:20:23;92614.19;;;-5.60;100.00
6395;BME280;3230;42.588;23.358;2023-02-13T05:22:50;92594.66;;;-5.52;100.00
6395;BME280;3230;42.588;23.358;2023-02-13T05:25:54;92617.63;;;-5.32;100.00
6395;BME280;3230;42.588;23.358;2023-02-13T05:28:19;92617.72;;;-5.24;100.00
6395;BME280;3230;42.588;23.358;2023-02-13T05:31:03;92620.94;;;-5.22;100.00
6395;BME280;3230;42.588;23.358;2023-02-13T05:33:29;92618.81;;;-5.26;100.00
6395;BME280;3230;42.588;23.358;2023-02-13T05:35:54;92625.53;;;-5.25;100.00
6395;BME280;3230;42.588;23.358;2023-02-13T05:38:20;92626.59;;;-5.18;100.00
6395;BME280;3230;42.588;23.358;2023-02-13T05:40:45;92622.16;;;-5.16;100.00
6395;BME280;3230;42.588;23.358;2023-02-13T05:43:10;92626.81;;;-5.11;100.00
6395;BME280;3230;42.588;23.358;2023-02-13T05:45:36;92633.16;;;-5.16;100.00
6395;BME280;3230;42.588;23.358;2023-02-13T05:48:01;92628.84;;;-5.05;100.00
6395;BME280;3230;42.588;23.358;2023-02-13T05:50:27;92628.78;;;-4.86;100.00
6395;BME280;3230;42.588;23.358;2023-02-13T05:52:52;92632.06;;;-4.75;100.00
6395;BME280;3230;42.588;23.358;2023-02-13T05:55:17;92626.47;;;-4.89;100.00
6395;BME280;3230;42.588;23.358;2023-02-13T05:57:43;92625.97;;;-4.64;100.00
6395;BME280;3230;42.588;23.358;2023-02-13T06:00:08;92635.88;;;-4.52;100.00
6395;BME280;3230;42.588;23.358;2023-02-13T06:02:34;92644.34;;;-4.51;100.00
6395;BME280;3230;42.588;23.358;2023-02-13T06:04:59;92633.31;;;-4.52;100.00
6395;BME280;3230;42.588;23.358;2023-02-13T06:07:25;92640.53;;;-4.37;100.00
6395;BME280;3230;42.588;23.358;2023-02-13T06:09:50;92645.78;;;-4.21;100.00
6395;BME280;3230;42.588;23.358;2023-02-13T06:12:15;92646.25;;;-4.07;100.00
6395;BME280;3230;42.588;23.358;2023-02-13T06:14:41;92644.28;;;-3.95;100.00
6395;BME280;3230;42.588;23.358;2023-02-13T06:17:06;92648.03;;;-3.90;100.00
6395;BME280;3230;42.588;23.358;2023-02-13T06:19:32;92644.94;;;-3.75;100.00
6395;BME280;3230;42.588;23.358;2023-02-13T06:21:57;92649.47;;;-3.87;100.00
6395;BME280;3230;42.588;23.358;2023-02-13T06:24:22;92650.28;;;-3.68;100.00
6395;BME280;3230;42.588;23.358;2023-02-13T06:26:48;92660.00;;;-3.54;100.00
6395;BME280;3230;42.588;23.358;2023-02-13T06:29:13;92656.50;;;-3.53;100.00
6395;BME280;3230;42.588;23.358;2023-02-13T06:31:39;92659.84;;;-3.53;100.00
6395;BME280;3230;42.588;23.358;2023-02-13T06:34:04;92654.88;;;-3.36;100.00
6395;BME280;3230;42.588;23.358;2023-02-13T06:36:29;92664.13;;;-3.61;100.00
6395;BME280;3230;42.588;23.358;2023-02-13T06:38:55;92661.28;;;-3.32;100.00
6395;BME280;3230;42.588;23.358;2023-02-13T06:41:20;92663.91;;;-3.24;100.00
6395;BME280;3230;42.588;23.358;2023-02-13T06:43:46;92664.88;;;-3.25;100.00
6395;BME280;3230;42.588;23.358;2023-02-13T06:46:11;92660.84;;;-3.01;100.00
6395;BME280;3230;42.588;23.358;2023-02-13T06:48:37;92668.50;;;-3.09;100.00
6395;BME280;3230;42.588;23.358;2023-02-13T06:51:02;92665.25;;;-2.59;100.00
6395;BME280;3230;42.588;23.358;2023-02-13T06:53:28;92670.19;;;-2.65;100.00
6395;BME280;3230;42.588;23.358;2023-02-13T06:55:54;92669.28;;;-2.48;100.00
6395;BME280;3230;42.588;23.358;2023-02-13T06:58:21;92667.16;;;-2.18;100.00
6395;BME280;3230;42.588;23.358;2023-02-13T07:00:48;92667.03;;;-2.00;100.00
6395;BME280;3230;42.588;23.358;2023-02-13T07:03:13;92672.78;;;-2.22;100.00
6395;BME280;3230;42.588;23.358;2023-02-13T07:05:43;92672.41;;;-2.36;100.00
6395;BME280;3230;42.588;23.358;2023-02-13T07:08:10;92669.94;;;-2.03;100.00
6395;BME280;3230;42.588;23.358;2023-02-13T07:10:37;92666.09;;;-2.07;100.00
6395;BME280;3230;42.588;23.358;2023-02-13T07:13:03;92665.78;;;-1.96;100.00
6395;BME280;3230;42.588;23.358;2023-02-13T07:15:29;92666.16;;;-1.74;100.00
6395;BME280;3230;42.588;23.358;2023-02-13T07:17:55;92671.97;;;-1.47;100.00
6395;BME280;3230;42.588;23.358;2023-02-13T07:20:21;92671.16;;;-1.23;100.00
6395;BME280;3230;42.588;23.358;2023-02-13T07:22:47;92677.41;;;-1.01;100.00
6395;BME280;3230;42.588;23.358;2023-02-13T07:25:12;92678.03;;;-0.90;100.00
6395;BME280;3230;42.588;23.358;2023-02-13T07:27:38;92690.50;;;-0.46;100.00
6395;BME280;3230;42.588;23.358;2023-02-13T07:30:03;92686.41;;;-0.32;99.96
6395;BME280;3230;42.588;23.358;2023-02-13T07:32:29;92686.97;;;-0.45;100.00
6395;BME280;3230;42.588;23.358;2023-02-13T07:34:55;92680.44;;;-0.24;100.00
6395;BME280;3230;42.588;23.358;2023-02-13T07:37:20;92686.56;;;-0.25;100.00
6395;BME280;3230;42.588;23.358;2023-02-13T07:39:45;92688.38;;;-0.03;100.00
6395;BME280;3230;42.588;23.358;2023-02-13T07:42:11;92689.91;;;0.23;99.73
6395;BME280;3230;42.588;23.358;2023-02-13T07:44:36;92696.22;;;0.44;100.00
6395;BME280;3230;42.588;23.358;2023-02-13T07:47:01;92686.06;;;0.11;100.00
6395;BME280;3230;42.588;23.358;2023-02-13T07:49:27;92674.47;;;0.15;100.00
6395;BME280;3230;42.588;23.358;2023-02-13T07:51:55;92690.75;;;0.39;100.00
6395;BME280;3230;42.588;23.358;2023-02-13T07:54:20;92695.50;;;0.27;100.00
6395;BME280;3230;42.588;23.358;2023-02-13T07:56:46;92687.84;;;0.65;100.00
6395;BME280;3230;42.588;23.358;2023-02-13T07:59:11;92696.16;;;0.52;100.00
6395;BME280;3230;42.588;23.358;2023-02-13T08:01:37;92691.06;;;0.67;99.95
6395;BME280;3230;42.588;23.358;2023-02-13T08:04:02;92682.56;;;0.58;100.00
6395;BME280;3230;42.588;23.358;2023-02-13T08:06:28;92687.34;;;0.70;100.00
6395;BME280;3230;42.588;23.358;2023-02-13T08:08:53;92681.44;;;0.61;99.26
6395;BME280;3230;42.588;23.358;2023-02-13T08:11:39;92680.41;;;0.70;99.71
6395;BME280;3230;42.588;23.358;2023-02-13T08:14:22;92686.13;;;1.04;98.21
6395;BME280;3230;42.588;23.358;2023-02-13T08:16:48;92690.97;;;1.37;97.23
6395;BME280;3230;42.588;23.358;2023-02-13T08:19:13;92682.31;;;1.30;95.79
6395;BME280;3230;42.588;23.358;2023-02-13T08:21:39;92688.47;;;1.43;95.62
6395;BME280;3230;42.588;23.358;2023-02-13T08:24:05;92692.22;;;1.56;94.65
6395;BME280;3230;42.588;23.358;2023-02-13T08:26:31;92690.78;;;1.23;94.83
6395;BME280;3230;42.588;23.358;2023-02-13T08:28:57;92693.38;;;1.38;95.13
6395;BME280;3230;42.588;23.358;2023-02-13T08:31:22;92689.94;;;1.61;94.84
6395;BME280;3230;42.588;23.358;2023-02-13T08:33:48;92691.97;;;1.66;93.42
6395;BME280;3230;42.588;23.358;2023-02-13T08:36:14;92696.16;;;1.67;93.89
6395;BME280;3230;42.588;23.358;2023-02-13T08:38:39;92697.19;;;2.17;92.95
6395;BME280;3230;42.588;23.358;2023-02-13T08:41:04;92689.66;;;1.86;92.91
6395;BME280;3230;42.588;23.358;2023-02-13T08:43:30;92695.25;;;2.19;90.59
6395;BME280;3230;42.588;23.358;2023-02-13T08:45:59;92699.88;;;2.46;90.06
6395;BME280;3230;42.588;23.358;2023-02-13T08:48:25;92695.44;;;2.39;90.09
6395;BME280;3230;42.588;23.358;2023-02-13T08:50:51;92693.53;;;2.48;89.75
6395;BME280;3230;42.588;23.358;2023-02-13T08:53:16;92703.00;;;2.19;89.80
6395;BME280;3230;42.588;23.358;2023-02-13T08:55:41;92704.28;;;2.45;88.67
6395;BME280;3230;42.588;23.358;2023-02-13T08:58:07;92703.16;;;2.18;89.63
6395;BME280;3230;42.588;23.358;2023-02-13T09:00:32;92699.00;;;2.53;89.36
6395;BME280;3230;42.588;23.358;2023-02-13T09:03:01;92705.75;;;2.33;89.27
6395;BME280;3230;42.588;23.358;2023-02-13T09:05:28;92699.00;;;2.38;91.08
6395;BME280;3230;42.588;23.358;2023-02-13T09:07:55;92707.94;;;2.36;91.07
6395;BME280;3230;42.588;23.358;2023-02-13T09:10:20;92698.84;;;2.40;91.52
6395;BME280;3230;42.588;23.358;2023-02-13T09:12:52;92692.47;;;2.58;89.46
6395;BME280;3230;42.588;23.358;2023-02-13T09:15:18;92710.81;;;2.63;89.27
6395;BME280;3230;42.588;23.358;2023-02-13T09:17:43;92713.88;;;2.88;88.35
6395;BME280;3230;42.588;23.358;2023-02-13T09:20:09;92711.16;;;2.96;89.41
6395;BME280;3230;42.588;23.358;2023-02-13T09:22:36;92706.28;;;3.08;86.79
6395;BME280;3230;42.588;23.358;2023-02-13T09:25:02;92708.56;;;3.46;86.38
6395;BME280;3230;42.588;23.358;2023-02-13T09:27:29;92705.94;;;3.75;85.20
6395;BME280;3230;42.588;23.358;2023-02-13T09:29:54;92692.97;;;3.68;83.58
6395;BME280;3230;42.588;23.358;2023-02-13T09:32:20;92692.16;;;3.39;83.26
6395;BME280;3230;42.588;23.358;2023-02-13T09:34:45;92692.69;;;3.28;83.92
6395;BME280;3230;42.588;23.358;2023-02-13T09:37:11;92679.91;;;3.26;85.86
6395;BME280;3230;42.588;23.358;2023-02-13T09:39:36;92680.16;;;3.66;85.04
6395;BME280;3230;42.588;23.358;2023-02-13T09:42:05;92682.28;;;3.84;84.32
6395;BME280;3230;42.588;23.358;2023-02-13T09:44:41;92677.56;;;3.66;83.32
6395;BME280;3230;42.588;23.358;2023-02-13T09:47:31;92674.53;;;3.56;85.58
6395;BME280;3230;42.588;23.358;2023-02-13T09:50:00;92666.34;;;3.88;84.30
6395;BME280;3230;42.588;23.358;2023-02-13T09:52:29;92667.69;;;3.83;83.61
6395;BME280;3230;42.588;23.358;2023-02-13T09:54:56;92671.31;;;3.82;82.97
6395;BME280;3230;42.588;23.358;2023-02-13T09:57:30;92669.63;;;4.03;83.90
6395;BME280;3230;42.588;23.358;2023-02-13T10:00:04;92677.09;;;3.84;82.55
6395;BME280;3230;42.588;23.358;2023-02-13T10:05:07;92661.69;;;3.41;83.87
6395;BME280;3230;42.588;23.358;2023-02-13T10:18:18;92657.09;;;2.86;87.33
6395;BME280;3230;42.588;23.358;2023-02-13T10:20:50;92646.22;;;2.54;87.90
6395;BME280;3230;42.588;23.358;2023-02-13T10:23:38;92649.94;;;2.67;88.33
6395;BME280;3230;42.588;23.358;2023-02-13T10:28:44;92646.44;;;3.03;87.38
6395;BME280;3230;42.588;23.358;2023-02-13T10:31:11;92633.25;;;2.91;88.45
6395;BME280;3230;42.588;23.358;2023-02-13T10:33:50;92628.28;;;2.96;87.97
6395;BME280;3230;42.588;23.358;2023-02-13T10:36:30;92605.84;;;2.53;88.97
6395;BME280;3230;42.588;23.358;2023-02-13T10:39:14;92625.25;;;2.64;89.25
6395;BME280;3230;42.588;23.358;2023-02-13T10:44:28;92611.91;;;2.67;89.34
6395;BME280;3230;42.588;23.358;2023-02-13T11:03:29;92603.59;;;3.00;88.57
6395;BME280;3230;42.588;23.358;2023-02-13T11:05:56;92600.31;;;3.13;88.60
6395;BME280;3230;42.588;23.358;2023-02-13T11:10:49;92596.50;;;2.81;88.62
6395;BME280;3230;42.588;23.358;2023-02-13T11:13:28;92595.72;;;3.09;88.46
6395;BME280;3230;42.588;23.358;2023-02-13T11:16:06;92596.47;;;3.02;89.14
6395;BME280;3230;42.588;23.358;2023-02-13T11:18:48;92592.31;;;3.08;89.06
6395;BME280;3230;42.588;23.358;2023-02-13T11:21:22;92582.94;;;3.07;88.54
6395;BME280;3230;42.588;23.358;2023-02-13T11:23:56;92583.53;;;3.09;88.15
6395;BME280;3230;42.588;23.358;2023-02-13T11:26:30;92578.13;;;3.04;88.85
6395;BME280;3230;42.588;23.358;2023-02-13T11:28:59;92566.78;;;3.05;89.17
6395;BME280;3230;42.588;23.358;2023-02-13T11:31:34;92561.63;;;3.05;89.05
6395;BME280;3230;42.588;23.358;2023-02-13T11:34:27;92556.38;;;3.27;89.14
6395;BME280;3230;42.588;23.358;2023-02-13T11:39:41;92551.84;;;3.42;88.48
6395;BME280;3230;42.588;23.358;2023-02-13T11:44:53;92544.34;;;3.19;88.23
6395;BME280;3230;42.588;23.358;2023-02-13T11:47:40;92548.41;;;3.28;88.85
6395;BME280;3230;42.588;23.358;2023-02-13T11:50:26;92540.41;;;3.30;88.20
6395;BME280;3230;42.588;23.358;2023-02-13T11:52:57;92541.47;;;3.42;89.07
6395;BME280;3230;42.588;23.358;2023-02-13T11:55:29;92536.28;;;3.42;87.90
6395;BME280;3230;42.588;23.358;2023-02-13T11:58:22;92522.97;;;3.45;87.14
6395;BME280;3230;42.588;23.358;2023-02-13T12:00:45;92519.63;;;3.58;87.80
6395;BME280;3230;42.588;23.358;2023-02-13T12:06:03;92521.50;;;3.84;86.50
6395;BME280;3230;42.588;23.358;2023-02-13T12:08:31;92512.81;;;3.50;85.92
6395;BME280;3230;42.588;23.358;2023-02-13T12:10:58;92511.81;;;3.45;86.61
6395;BME280;3230;42.588;23.358;2023-02-13T12:13:32;92512.66;;;3.59;86.01
6395;BME280;3230;42.588;23.358;2023-02-13T12:16:03;92505.44;;;3.47;85.50
6395;BME280;3230;42.588;23.358;2023-02-13T12:18:36;92517.03;;;3.58;85.03
6395;BME280;3230;42.588;23.358;2023-02-13T12:23:53;92516.06;;;3.66;84.87
6395;BME280;3230;42.588;23.358;2023-02-13T12:37:09;92509.56;;;3.97;83.48
6395;BME280;3230;42.588;23.358;2023-02-13T12:50:51;92489.25;;;4.27;81.50
6395;BME280;3230;42.588;23.358;2023-02-13T12:56:30;92484.44;;;4.31;80.72
6395;BME280;3230;42.588;23.358;2023-02-13T13:04:49;92488.06;;;4.16;79.84
6395;BME280;3230;42.588;23.358;2023-02-13T13:10:41;92487.25;;;4.43;78.83
6395;BME280;3230;42.588;23.358;2023-02-13T13:13:50;92481.25;;;4.09;78.93
6395;BME280;3230;42.588;23.358;2023-02-13T13:19:34;92471.06;;;4.61;76.28
6395;BME280;3230;42.588;23.358;2023-02-13T13:27:24;92470.66;;;4.10;77.93
6395;BME280;3230;42.588;23.358;2023-02-13T13:29:55;92460.91;;;4.26;77.48
6395;BME280;3230;42.588;23.358;2023-02-13T13:32:21;92447.72;;;4.34;77.54
6395;BME280;3230;42.588;23.358;2023-02-13T13:34:47;92465.72;;;4.29;77.22
6395;BME280;3230;42.588;23.358;2023-02-13T13:37:32;92463.50;;;4.26;77.45
6395;BME280;3230;42.588;23.358;2023-02-13T13:40:32;92461.09;;;4.51;76.07
6395;BME280;3230;42.588;23.358;2023-02-13T13:48:17;92459.31;;;4.25;77.41
6395;BME280;3230;42.588;23.358;2023-02-13T13:50:44;92462.13;;;4.30;76.10
6395;BME280;3230;42.588;23.358;2023-02-13T13:58:38;92459.53;;;4.30;76.44
6395;BME280;3230;42.588;23.358;2023-02-13T14:04:03;92454.91;;;4.19;77.03
6395;BME280;3230;42.588;23.358;2023-02-13T14:11:53;92461.09;;;4.11;76.51
6395;BME280;3230;42.588;23.358;2023-02-13T14:17:00;92454.34;;;4.16;76.96
6395;BME280;3230;42.588;23.358;2023-02-13T14:19:37;92452.94;;;4.21;76.83
6395;BME280;3230;42.588;23.358;2023-02-13T14:25:04;92447.31;;;4.24;77.00
6395;BME280;3230;42.588;23.358;2023-02-13T14:27:39;92441.13;;;4.11;77.19
6395;BME280;3230;42.588;23.358;2023-02-13T14:30:21;92432.56;;;3.97;78.22
6395;BME280;3230;42.588;23.358;2023-02-13T14:32:49;92427.38;;;4.11;77.02
6395;BME280;3230;42.588;23.358;2023-02-13T14:35:27;92422.59;;;4.14;77.49
6395;BME280;3230;42.588;23.358;2023-02-13T14:37:58;92429.94;;;4.04;77.03
6395;BME280;3230;42.588;23.358;2023-02-13T14:43:37;92421.19;;;3.85;77.65
6395;BME280;3230;42.588;23.358;2023-02-13T14:46:23;92423.53;;;3.66;78.05
6395;BME280;3230;42.588;23.358;2023-02-13T14:48:54;92430.28;;;3.54;78.65
6395;BME280;3230;42.588;23.358;2023-02-13T14:51:25;92417.09;;;3.42;79.31
6395;BME280;3230;42.588;23.358;2023-02-13T14:56:30;92424.00;;;3.15;80.38
6395;BME280;3230;42.588;23.358;2023-02-13T15:01:41;92415.97;;;3.03;80.99
6395;BME280;3230;42.588;23.358;2023-02-13T15:04:18;92419.06;;;2.85;82.15
6395;BME280;3230;42.588;23.358;2023-02-13T15:06:45;92426.84;;;2.85;82.75
6395;BME280;3230;42.588;23.358;2023-02-13T15:09:29;92421.78;;;2.70;82.69
6395;BME280;3230;42.588;23.358;2023-02-13T15:11:57;92424.09;;;2.58;83.43
6395;BME280;3230;42.588;23.358;2023-02-13T15:14:33;92421.28;;;2.46;83.72
6395;BME280;3230;42.588;23.358;2023-02-13T15:17:06;92418.81;;;2.38;83.83
6395;BME280;3230;42.588;23.358;2023-02-13T15:19:35;92420.34;;;2.26;84.91
6395;BME280;3230;42.588;23.358;2023-02-13T15:22:03;92422.28;;;2.17;85.19
6395;BME280;3230;42.588;23.358;2023-02-13T15:24:36;92413.59;;;2.03;85.21
6395;BME280;3230;42.588;23.358;2023-02-13T15:27:05;92422.41;;;2.08;85.98
6395;BME280;3230;42.588;23.358;2023-02-13T15:29:31;92425.25;;;1.92;86.30
6395;BME280;3230;42.588;23.358;2023-02-13T15:31:57;92431.91;;;1.80;86.82
6395;BME280;3230;42.588;23.358;2023-02-13T15:34:30;92426.81;;;1.86;86.66
6395;BME280;3230;42.588;23.358;2023-02-13T15:36:58;92429.00;;;1.68;87.37
6395;BME280;3230;42.588;23.358;2023-02-13T15:39:27;92421.75;;;1.56;87.32
6395;BME280;3230;42.588;23.358;2023-02-13T15:41:57;92426.91;;;1.56;87.70
6395;BME280;3230;42.588;23.358;2023-02-13T15:44:25;92424.84;;;1.45;88.33
6395;BME280;3230;42.588;23.358;2023-02-13T15:46:53;92425.50;;;1.32;88.33
6395;BME280;3230;42.588;23.358;2023-02-13T15:49:22;92428.91;;;1.18;88.98
6395;BME280;3230;42.588;23.358;2023-02-13T15:51:49;92423.69;;;1.11;89.56
6395;BME280;3230;42.588;23.358;2023-02-13T15:54:27;92433.28;;;1.02;89.57
6395;BME280;3230;42.588;23.358;2023-02-13T15:56:55;92428.16;;;0.87;90.38